createdAt,value
2023-05-22T00:00:01.813Z,0.00
2023-05-22T00:01:01.777Z,0.00
2023-05-22T00:02:01.846Z,0.00
2023-05-22T00:03:01.834Z,0.00
2023-05-22T00:04:01.733Z,0.00
2023-05-22T00:05:01.749Z,0.00
2023-05-22T00:06:01.709Z,0.00
2023-05-22T00:07:01.713Z,0.00
2023-05-22T00:08:01.719Z,0.00
2023-05-22T00:09:01.689Z,0.00
2023-05-22T00:10:01.727Z,0.00
2023-05-22T00:11:02.219Z,0.00
2023-05-22T00:12:01.640Z,0.00
2023-05-22T00:13:01.604Z,0.00
2023-05-22T00:14:01.593Z,0.00
2023-05-22T00:15:01.600Z,0.00
2023-05-22T00:16:01.578Z,0.00
2023-05-22T00:17:01.649Z,0.00
2023-05-22T00:18:01.586Z,0.00
2023-05-22T00:19:01.632Z,0.00
2023-05-22T00:20:01.541Z,0.00
2023-05-22T00:21:01.514Z,0.00
2023-05-22T00:22:01.519Z,0.00
2023-05-22T00:23:01.489Z,0.00
2023-05-22T00:24:01.463Z,0.00
2023-05-22T00:25:01.477Z,0.00
2023-05-22T00:26:01.462Z,0.00
2023-05-22T00:27:01.422Z,0.00
2023-05-22T00:28:01.408Z,0.00
2023-05-22T00:29:01.413Z,0.00
2023-05-22T00:30:01.743Z,0.00
2023-05-22T00:31:01.406Z,0.00
2023-05-22T00:32:01.512Z,0.00
2023-05-22T00:33:01.379Z,0.00
2023-05-22T00:34:01.388Z,0.00
2023-05-22T00:35:01.331Z,0.00
2023-05-22T00:36:01.308Z,0.00
2023-05-22T00:37:01.301Z,0.00
2023-05-22T00:38:01.304Z,0.00
2023-05-22T00:39:01.278Z,0.00
2023-05-22T00:40:01.276Z,0.00
2023-05-22T00:41:01.248Z,0.00
2023-05-22T00:42:01.235Z,0.00
2023-05-22T00:43:01.250Z,0.00
2023-05-22T00:44:01.211Z,0.00
2023-05-22T00:45:01.202Z,0.00
2023-05-22T00:46:01.187Z,0.00
2023-05-22T00:47:01.289Z,0.00
2023-05-22T00:48:01.177Z,0.00
2023-05-22T00:49:01.166Z,0.00
2023-05-22T00:50:01.169Z,0.00
2023-05-22T00:51:01.119Z,0.00
2023-05-22T00:52:01.125Z,0.00
2023-05-22T00:53:01.089Z,0.00
2023-05-22T00:54:01.084Z,0.00
2023-05-22T00:55:01.089Z,0.00
2023-05-22T00:56:01.050Z,0.00
2023-05-22T00:57:01.059Z,0.00
2023-05-22T00:58:01.021Z,0.00
2023-05-22T00:59:01.026Z,0.00
2023-05-22T01:00:01.010Z,0.00
2023-05-22T01:01:01.011Z,0.00
2023-05-22T01:02:01.010Z,0.00
2023-05-22T01:03:01.034Z,0.00
2023-05-22T01:04:01.101Z,0.00
2023-05-22T01:05:00.935Z,0.00
2023-05-22T01:06:00.918Z,0.00
2023-05-22T01:07:00.943Z,0.00
2023-05-22T01:08:00.896Z,0.00
2023-05-22T01:09:00.894Z,0.00
2023-05-22T01:10:00.871Z,0.00
2023-05-22T01:11:00.858Z,0.00
2023-05-22T01:12:00.873Z,0.00
2023-05-22T01:13:00.907Z,0.00
2023-05-22T01:14:00.818Z,0.00
2023-05-22T01:15:00.815Z,0.00
2023-05-22T01:16:00.836Z,0.00
2023-05-22T01:17:00.772Z,0.00
2023-05-22T01:18:00.814Z,0.00
2023-05-22T01:19:00.773Z,0.00
2023-05-22T01:20:00.742Z,0.00
2023-05-22T01:21:00.719Z,0.00
2023-05-22T01:22:00.724Z,0.00
2023-05-22T01:23:00.706Z,0.00
2023-05-22T01:24:00.679Z,0.00
2023-05-22T01:25:00.711Z,0.00
2023-05-22T01:26:00.658Z,0.00
2023-05-22T01:27:00.648Z,0.00
2023-05-22T01:28:00.641Z,0.00
2023-05-22T01:29:00.624Z,0.00
2023-05-22T01:30:00.619Z,0.00
2023-05-22T01:31:00.590Z,0.00
2023-05-22T01:32:00.582Z,0.00
2023-05-22T01:33:00.630Z,0.00
2023-05-22T01:34:00.667Z,0.00
2023-05-22T01:35:00.542Z,0.00
2023-05-22T01:36:00.552Z,0.00
2023-05-22T01:37:00.525Z,0.00
2023-05-22T01:38:00.519Z,0.00
2023-05-22T01:39:00.498Z,0.00
2023-05-22T01:40:00.501Z,0.00
2023-05-22T01:41:00.469Z,0.00
2023-05-22T01:42:00.468Z,0.00
2023-05-22T01:43:00.441Z,0.00
2023-05-22T01:44:00.433Z,0.00
2023-05-22T01:45:00.412Z,0.00
2023-05-22T01:46:00.479Z,0.00
2023-05-22T01:47:00.406Z,0.00
2023-05-22T01:48:00.449Z,0.00
2023-05-22T01:49:00.375Z,0.00
2023-05-22T01:50:00.360Z,0.00
2023-05-22T01:51:00.351Z,0.00
2023-05-22T01:52:00.332Z,0.00
2023-05-22T01:53:00.316Z,0.00
2023-05-22T01:54:00.404Z,0.00
2023-05-22T01:55:00.281Z,0.00
2023-05-22T01:56:00.302Z,0.00
2023-05-22T01:57:00.266Z,0.00
2023-05-22T01:58:00.257Z,0.00
2023-05-22T01:59:00.235Z,0.00
2023-05-22T02:00:00.244Z,0.00
2023-05-22T02:01:00.873Z,0.00
2023-05-22T02:02:00.276Z,0.00
2023-05-22T02:03:00.385Z,0.00
2023-05-22T02:04:00.243Z,0.00
2023-05-22T02:05:00.204Z,0.00
2023-05-22T02:06:00.210Z,0.00
2023-05-22T02:07:00.137Z,0.00
2023-05-22T02:08:00.132Z,0.00
2023-05-22T02:09:00.126Z,0.00
2023-05-22T02:10:00.143Z,0.00
2023-05-22T02:11:00.072Z,0.00
2023-05-22T02:12:00.121Z,0.00
2023-05-22T02:13:00.085Z,0.00
2023-05-22T02:14:00.054Z,0.00
2023-05-22T02:15:00.029Z,0.00
2023-05-22T02:16:00.096Z,0.00
2023-05-22T02:17:00.003Z,0.00
2023-05-22T02:18:00.067Z,0.00
2023-05-22T02:19:00.033Z,0.00
2023-05-22T02:19:59.962Z,0.00
2023-05-22T02:20:59.946Z,0.00
2023-05-22T02:21:59.940Z,0.00
2023-05-22T02:22:59.961Z,0.00
2023-05-22T02:23:59.926Z,0.00
2023-05-22T02:24:59.904Z,0.00
2023-05-22T02:25:59.900Z,0.00
2023-05-22T02:26:59.875Z,0.00
2023-05-22T02:27:59.852Z,0.00
2023-05-22T02:28:59.892Z,0.00
2023-05-22T02:29:59.835Z,0.00
2023-05-22T02:30:59.856Z,0.00
2023-05-22T02:31:59.833Z,0.00
2023-05-22T02:32:59.851Z,0.00
2023-05-22T02:33:59.787Z,0.00
2023-05-22T02:34:59.804Z,0.00
2023-05-22T02:35:59.778Z,0.00
2023-05-22T02:36:59.734Z,0.00
2023-05-22T02:37:59.728Z,0.00
2023-05-22T02:38:59.727Z,0.00
2023-05-22T02:39:59.712Z,0.00
2023-05-22T02:40:59.711Z,0.00
2023-05-22T02:41:59.681Z,0.00
2023-05-22T02:42:59.689Z,0.00
2023-05-22T02:43:59.645Z,0.00
2023-05-22T02:44:59.662Z,0.00
2023-05-22T02:45:59.632Z,0.00
2023-05-22T02:46:59.777Z,0.00
2023-05-22T02:47:59.618Z,0.00
2023-05-22T02:48:59.581Z,0.00
2023-05-22T02:49:59.583Z,0.00
2023-05-22T02:50:59.555Z,0.00
2023-05-22T02:51:59.571Z,0.00
2023-05-22T02:52:59.539Z,0.00
2023-05-22T02:53:59.565Z,0.00
2023-05-22T02:54:59.505Z,0.00
2023-05-22T02:55:59.511Z,0.00
2023-05-22T02:56:59.526Z,0.00
2023-05-22T02:57:59.488Z,0.00
2023-05-22T02:58:59.465Z,0.00
2023-05-22T02:59:59.454Z,0.00
2023-05-22T03:00:59.441Z,4.00
2023-05-22T03:01:59.475Z,4.00
2023-05-22T03:02:59.548Z,4.00
2023-05-22T03:03:59.414Z,0.00
2023-05-22T03:04:59.377Z,4.00
2023-05-22T03:05:59.367Z,4.00
2023-05-22T03:06:59.355Z,8.00
2023-05-22T03:07:59.334Z,4.00
2023-05-22T03:08:59.348Z,8.00
2023-05-22T03:09:59.303Z,8.00
2023-05-22T03:10:59.307Z,12.00
2023-05-22T03:11:59.295Z,12.00
2023-05-22T03:12:59.289Z,12.00
2023-05-22T03:13:59.294Z,16.00
2023-05-22T03:14:59.316Z,16.00
2023-05-22T03:15:59.249Z,20.00
2023-05-22T03:16:59.219Z,24.00
2023-05-22T03:17:59.267Z,28.00
2023-05-22T03:18:59.212Z,32.00
2023-05-22T03:19:59.185Z,36.00
2023-05-22T03:20:59.186Z,40.00
2023-05-22T03:21:59.182Z,44.00
2023-05-22T03:22:59.179Z,52.00
2023-05-22T03:23:59.162Z,60.00
2023-05-22T03:24:59.142Z,68.00
2023-05-22T03:25:59.100Z,76.00
2023-05-22T03:26:59.124Z,84.00
2023-05-22T03:27:59.092Z,96.00
2023-05-22T03:28:59.132Z,108.00
2023-05-22T03:29:59.086Z,116.00
2023-05-22T03:30:59.046Z,132.00
2023-05-22T03:31:59.049Z,148.00
2023-05-22T03:32:59.061Z,156.00
2023-05-22T03:33:59.032Z,176.00
2023-05-22T03:34:59.012Z,192.00
2023-05-22T03:35:58.982Z,212.00
2023-05-22T03:36:58.974Z,232.00
2023-05-22T03:37:58.976Z,256.00
2023-05-22T03:38:58.954Z,280.00
2023-05-22T03:39:58.975Z,304.00
2023-05-22T03:40:58.917Z,332.00
2023-05-22T03:41:58.912Z,364.00
2023-05-22T03:42:58.900Z,392.00
2023-05-22T03:43:58.914Z,428.00
2023-05-22T03:44:58.864Z,460.00
2023-05-22T03:45:58.898Z,500.00
2023-05-22T03:46:58.866Z,536.00
2023-05-22T03:47:58.830Z,576.00
2023-05-22T03:48:58.844Z,612.00
2023-05-22T03:49:58.796Z,652.00
2023-05-22T03:50:58.779Z,696.00
2023-05-22T03:51:58.785Z,740.00
2023-05-22T03:52:58.777Z,784.00
2023-05-22T03:53:58.766Z,832.00
2023-05-22T03:54:58.729Z,876.00
2023-05-22T03:55:58.720Z,928.00
2023-05-22T03:56:58.719Z,980.00
2023-05-22T03:57:58.684Z,1036.00
2023-05-22T03:58:58.683Z,1088.00
2023-05-22T03:59:58.692Z,1148.00
2023-05-22T04:00:58.715Z,1208.00
2023-05-22T04:01:58.668Z,1264.00
2023-05-22T04:02:58.968Z,1324.00
2023-05-22T04:03:58.609Z,1384.00
2023-05-22T04:04:58.649Z,1448.00
2023-05-22T04:05:58.598Z,1516.00
2023-05-22T04:06:58.574Z,1584.00
2023-05-22T04:07:58.573Z,1652.00
2023-05-22T04:08:58.563Z,1720.00
2023-05-22T04:09:58.538Z,1792.00
2023-05-22T04:10:58.536Z,1880.00
2023-05-22T04:11:58.507Z,1968.00
2023-05-22T04:12:58.502Z,2052.00
2023-05-22T04:13:58.495Z,2144.00
2023-05-22T04:14:58.487Z,2232.00
2023-05-22T04:15:58.505Z,2316.00
2023-05-22T04:16:58.493Z,2412.00
2023-05-22T04:17:58.464Z,2508.00
2023-05-22T04:18:58.445Z,2616.00
2023-05-22T04:19:58.424Z,2728.00
2023-05-22T04:20:58.399Z,2832.00
2023-05-22T04:21:58.398Z,2960.00
2023-05-22T04:22:58.396Z,3092.00
2023-05-22T04:23:58.351Z,3228.00
2023-05-22T04:24:58.375Z,3352.00
2023-05-22T04:25:58.319Z,3492.00
2023-05-22T04:26:58.325Z,3656.00
2023-05-22T04:27:58.299Z,3840.00
2023-05-22T04:28:58.327Z,3984.00
2023-05-22T04:29:58.284Z,4128.00
2023-05-22T04:30:58.280Z,4280.00
2023-05-22T04:31:58.266Z,4460.00
2023-05-22T04:32:58.256Z,4660.00
2023-05-22T04:33:58.289Z,4856.00
2023-05-22T04:34:58.272Z,5048.00
2023-05-22T04:35:58.200Z,5244.00
2023-05-22T04:36:58.178Z,5456.00
2023-05-22T04:37:58.187Z,5672.00
2023-05-22T04:38:58.157Z,5860.00
2023-05-22T04:39:58.179Z,6052.00
2023-05-22T04:40:58.172Z,6224.00
2023-05-22T04:41:58.139Z,6344.00
2023-05-22T04:42:58.115Z,6444.00
2023-05-22T04:43:58.167Z,6568.00
2023-05-22T04:44:58.125Z,6712.00
2023-05-22T04:45:58.077Z,6904.00
2023-05-22T04:46:58.148Z,7112.00
2023-05-22T04:47:58.060Z,7268.00
2023-05-22T04:48:58.054Z,7412.00
2023-05-22T04:49:58.010Z,7560.00
2023-05-22T04:50:58.008Z,7760.00
2023-05-22T04:51:58.012Z,7976.00
2023-05-22T04:52:57.984Z,8200.00
2023-05-22T04:53:57.997Z,8392.00
2023-05-22T04:54:59.944Z,8572.00
2023-05-22T04:55:57.959Z,8692.00
2023-05-22T04:56:57.929Z,8772.00
2023-05-22T04:57:57.933Z,8776.00
2023-05-22T04:58:57.906Z,8592.00
2023-05-22T04:59:57.918Z,8584.00
2023-05-22T05:00:57.906Z,8504.00
2023-05-22T05:01:57.860Z,8388.00
2023-05-22T05:02:57.988Z,8232.00
2023-05-22T05:03:57.897Z,8084.00
2023-05-22T05:04:57.835Z,7940.00
2023-05-22T05:05:57.814Z,7812.00
2023-05-22T05:06:57.794Z,7656.00
2023-05-22T05:07:57.788Z,7484.00
2023-05-22T05:08:57.785Z,7320.00
2023-05-22T05:09:57.759Z,7168.00
2023-05-22T05:10:57.766Z,7008.00
2023-05-22T05:11:57.729Z,6860.00
2023-05-22T05:12:57.749Z,6608.00
2023-05-22T05:13:57.708Z,6468.00
2023-05-22T05:14:57.709Z,6488.00
2023-05-22T05:15:57.677Z,6532.00
2023-05-22T05:16:57.694Z,6584.00
2023-05-22T05:17:57.677Z,6384.00
2023-05-22T05:18:57.660Z,6276.00
2023-05-22T05:19:57.619Z,6500.00
2023-05-22T05:20:57.610Z,6572.00
2023-05-22T05:21:57.610Z,6620.00
2023-05-22T05:22:57.609Z,6604.00
2023-05-22T05:23:57.587Z,6088.00
2023-05-22T05:24:57.562Z,5988.00
2023-05-22T05:25:57.564Z,5952.00
2023-05-22T05:26:57.547Z,5924.00
2023-05-22T05:27:57.572Z,5984.00
2023-05-22T05:28:57.578Z,5988.00
2023-05-22T05:29:57.523Z,5964.00
2023-05-22T05:30:57.479Z,6008.00
2023-05-22T05:31:57.520Z,6068.00
2023-05-22T05:32:57.532Z,6136.00
2023-05-22T05:33:57.444Z,6208.00
2023-05-22T05:34:57.451Z,6312.00
2023-05-22T05:35:57.423Z,6484.00
2023-05-22T05:36:57.498Z,6692.00
2023-05-22T05:37:57.387Z,6900.00
2023-05-22T05:38:57.390Z,7144.00
2023-05-22T05:39:57.455Z,7348.00
2023-05-22T05:40:57.370Z,7428.00
2023-05-22T05:41:57.344Z,7360.00
2023-05-22T05:42:57.347Z,7240.00
2023-05-22T05:43:57.332Z,7152.00
2023-05-22T05:44:57.298Z,7052.00
2023-05-22T05:45:57.345Z,7016.00
2023-05-22T05:46:57.301Z,7028.00
2023-05-22T05:47:57.273Z,7060.00
2023-05-22T05:48:57.259Z,7176.00
2023-05-22T05:49:57.241Z,7360.00
2023-05-22T05:50:57.263Z,7548.00
2023-05-22T05:51:57.230Z,7740.00
2023-05-22T05:52:57.210Z,7848.00
2023-05-22T05:53:57.204Z,7920.00
2023-05-22T05:54:57.232Z,8032.00
2023-05-22T05:55:57.161Z,8212.00
2023-05-22T05:56:57.178Z,8324.00
2023-05-22T05:57:57.140Z,8436.00
2023-05-22T05:58:57.144Z,8604.00
2023-05-22T05:59:57.115Z,8948.00
2023-05-22T06:00:57.101Z,9116.00
2023-05-22T06:01:57.075Z,9400.00
2023-05-22T06:02:57.144Z,9680.00
2023-05-22T06:03:57.120Z,9852.00
2023-05-22T06:04:57.043Z,9868.00
2023-05-22T06:05:57.085Z,9748.00
2023-05-22T06:06:57.024Z,9624.00
2023-05-22T06:07:57.024Z,9528.00
2023-05-22T06:08:56.995Z,9424.00
2023-05-22T06:09:56.982Z,9372.00
2023-05-22T06:10:56.969Z,9160.00
2023-05-22T06:11:56.954Z,8920.00
2023-05-22T06:12:56.984Z,8876.00
2023-05-22T06:13:56.939Z,8584.00
2023-05-22T06:14:56.926Z,8488.00
2023-05-22T06:15:59.557Z,8516.00
2023-05-22T06:16:56.928Z,8736.00
2023-05-22T06:17:56.936Z,9292.00
2023-05-22T06:18:56.911Z,9092.00
2023-05-22T06:19:56.853Z,9196.00
2023-05-22T06:20:56.850Z,9312.00
2023-05-22T06:21:56.832Z,9412.00
2023-05-22T06:22:56.821Z,9496.00
2023-05-22T06:23:56.837Z,9948.00
2023-05-22T06:24:56.784Z,9864.00
2023-05-22T06:25:56.764Z,10240.00
2023-05-22T06:26:56.759Z,9988.00
2023-05-22T06:27:56.756Z,9992.00
2023-05-22T06:28:56.743Z,9924.00
2023-05-22T06:29:56.754Z,10020.00
2023-05-22T06:30:56.745Z,10196.00
2023-05-22T06:31:56.742Z,10352.00
2023-05-22T06:32:56.725Z,10616.00
2023-05-22T06:33:56.725Z,10892.00
2023-05-22T06:34:56.676Z,11324.00
2023-05-22T06:35:56.641Z,11508.00
2023-05-22T06:36:56.639Z,12452.00
2023-05-22T06:37:56.619Z,13100.00
2023-05-22T06:38:56.619Z,12956.00
2023-05-22T06:39:56.594Z,12084.00
2023-05-22T06:40:56.615Z,12092.00
2023-05-22T06:41:56.567Z,11972.00
2023-05-22T06:42:56.587Z,12748.00
2023-05-22T06:43:56.546Z,12412.00
2023-05-22T06:44:56.529Z,11964.00
2023-05-22T06:45:56.545Z,12092.00
2023-05-22T06:46:56.535Z,12448.00
2023-05-22T06:47:56.503Z,13132.00
2023-05-22T06:48:56.483Z,15264.00
2023-05-22T06:49:56.469Z,15584.00
2023-05-22T06:50:56.484Z,14440.00
2023-05-22T06:51:56.437Z,14624.00
2023-05-22T06:52:56.438Z,15680.00
2023-05-22T06:53:56.446Z,16288.00
2023-05-22T06:54:56.411Z,17056.00
2023-05-22T06:55:56.390Z,17152.00
2023-05-22T06:56:56.367Z,16384.00
2023-05-22T06:57:56.354Z,16224.00
2023-05-22T06:58:56.370Z,16128.00
2023-05-22T06:59:56.348Z,17312.00
2023-05-22T07:00:56.418Z,17440.00
2023-05-22T07:01:56.323Z,17600.00
2023-05-22T07:02:56.378Z,16220.00
2023-05-22T07:03:56.301Z,20864.00
2023-05-22T07:04:56.280Z,30816.00
2023-05-22T07:05:56.319Z,18880.00
2023-05-22T07:06:56.253Z,34560.00
2023-05-22T07:07:56.238Z,20576.00
2023-05-22T07:08:56.252Z,16800.00
2023-05-22T07:09:56.211Z,17888.00
2023-05-22T07:10:56.210Z,24320.00
2023-05-22T07:11:56.176Z,19872.00
2023-05-22T07:12:56.166Z,19200.00
2023-05-22T07:13:56.158Z,19040.00
2023-05-22T07:14:56.163Z,18752.00
2023-05-22T07:15:56.146Z,19360.00
2023-05-22T07:16:56.171Z,18816.00
2023-05-22T07:17:56.134Z,18528.00
2023-05-22T07:18:56.132Z,18720.00
2023-05-22T07:19:56.110Z,20544.00
2023-05-22T07:20:56.074Z,22720.00
2023-05-22T07:21:56.068Z,27424.00
2023-05-22T07:22:56.049Z,38336.00
2023-05-22T07:23:56.051Z,21920.00
2023-05-22T07:24:56.027Z,20864.00
2023-05-22T07:25:56.043Z,20448.00
2023-05-22T07:26:56.007Z,20288.00
2023-05-22T07:27:55.977Z,20128.00
2023-05-22T07:28:55.970Z,20032.00
2023-05-22T07:29:55.989Z,19936.00
2023-05-22T07:30:55.951Z,19968.00
2023-05-22T07:31:56.046Z,20128.00
2023-05-22T07:32:56.027Z,20320.00
2023-05-22T07:33:55.914Z,20384.00
2023-05-22T07:34:55.968Z,20416.00
2023-05-22T07:35:55.902Z,20384.00
2023-05-22T07:36:55.870Z,20416.00
2023-05-22T07:37:55.876Z,20416.00
2023-05-22T07:38:55.851Z,20416.00
2023-05-22T07:39:55.828Z,20416.00
2023-05-22T07:40:55.829Z,20192.00
2023-05-22T07:41:57.221Z,19936.00
2023-05-22T07:42:55.825Z,19776.00
2023-05-22T07:43:55.786Z,19776.00
2023-05-22T07:44:55.775Z,19936.00
2023-05-22T07:45:55.791Z,20128.00
2023-05-22T07:46:55.781Z,20320.00
2023-05-22T07:47:56.505Z,20544.00
2023-05-22T07:48:55.744Z,20672.00
2023-05-22T07:49:55.708Z,20928.00
2023-05-22T07:50:55.727Z,21280.00
2023-05-22T07:51:55.694Z,21664.00
2023-05-22T07:52:55.666Z,21952.00
2023-05-22T07:53:55.676Z,22176.00
2023-05-22T07:54:55.672Z,22272.00
2023-05-22T07:55:55.629Z,22240.00
2023-05-22T07:56:55.627Z,22240.00
2023-05-22T07:57:55.612Z,22368.00
2023-05-22T07:58:55.619Z,22720.00
2023-05-22T07:59:55.595Z,23168.00
2023-05-22T08:00:55.601Z,23520.00
2023-05-22T08:01:57.933Z,23840.00
2023-05-22T08:02:55.625Z,23904.00
2023-05-22T08:03:55.792Z,23904.00
2023-05-22T08:04:55.532Z,24032.00
2023-05-22T08:05:55.500Z,24352.00
2023-05-22T08:06:55.502Z,24896.00
2023-05-22T08:07:55.471Z,25792.00
2023-05-22T08:08:55.471Z,27616.00
2023-05-22T08:09:55.456Z,27584.00
2023-05-22T08:11:04.140Z,27744.00
2023-05-22T08:11:55.467Z,28832.00
2023-05-22T08:12:55.423Z,35104.00
2023-05-22T08:13:55.403Z,43808.00
2023-05-22T08:14:55.388Z,51424.00
2023-05-22T08:16:00.602Z,62208.00
2023-05-22T08:16:55.416Z,53344.00
2023-05-22T08:17:55.433Z,50144.00
2023-05-22T08:18:55.388Z,71552.00
2023-05-22T08:19:55.400Z,80768.00
2023-05-22T08:20:55.343Z,79264.00
2023-05-22T08:21:55.318Z,75360.00
2023-05-22T08:22:56.204Z,60384.00
2023-05-22T08:23:55.312Z,62592.00
2023-05-22T08:24:55.277Z,76000.00
2023-05-22T08:25:55.284Z,77600.00
2023-05-22T08:26:55.272Z,77952.00
2023-05-22T08:27:55.257Z,76512.00
2023-05-22T08:28:55.273Z,75200.00
2023-05-22T08:29:55.266Z,61952.00
2023-05-22T08:30:55.241Z,80032.00
2023-05-22T08:31:55.223Z,73472.00
2023-05-22T08:32:55.274Z,67232.00
2023-05-22T08:33:55.216Z,55616.00
2023-05-22T08:34:55.256Z,69248.00
2023-05-22T08:35:55.218Z,56992.00
2023-05-22T08:36:55.216Z,48320.00
2023-05-22T08:37:55.166Z,39744.00
2023-05-22T08:38:55.180Z,53728.00
2023-05-22T08:39:55.166Z,59008.00
2023-05-22T08:40:55.176Z,66656.00
2023-05-22T08:41:55.158Z,68096.00
2023-05-22T08:42:55.160Z,78336.00
2023-05-22T08:43:55.109Z,77760.00
2023-05-22T08:44:55.170Z,76032.00
2023-05-22T08:45:55.111Z,72672.00
2023-05-22T08:46:55.127Z,71904.00
2023-05-22T08:47:55.143Z,70464.00
2023-05-22T08:48:55.100Z,71552.00
2023-05-22T08:49:55.076Z,71296.00
2023-05-22T08:50:55.037Z,80288.00
2023-05-22T08:51:55.093Z,89472.00
2023-05-22T08:52:55.031Z,80608.00
2023-05-22T08:53:55.073Z,92288.00
2023-05-22T08:54:55.023Z,94208.00
2023-05-22T08:55:55.022Z,97792.00
2023-05-22T08:56:57.113Z,99840.00
2023-05-22T08:57:55.042Z,101824.00
2023-05-22T08:58:54.978Z,101664.00
2023-05-22T08:59:55.006Z,99616.00
2023-05-22T09:00:55.056Z,78656.00
2023-05-22T09:01:54.970Z,53984.00
2023-05-22T09:02:55.027Z,61632.00
2023-05-22T09:03:54.980Z,47520.00
2023-05-22T09:04:54.938Z,47168.00
2023-05-22T09:05:54.943Z,58368.00
2023-05-22T09:06:54.951Z,67168.00
2023-05-22T09:07:56.613Z,88320.00
2023-05-22T09:08:54.911Z,90880.00
2023-05-22T09:09:54.903Z,83232.00
2023-05-22T09:10:54.897Z,83808.00
2023-05-22T09:11:54.931Z,81536.00
2023-05-22T09:12:54.916Z,81408.00
2023-05-22T09:13:54.869Z,81984.00
2023-05-22T09:14:55.353Z,80480.00
2023-05-22T09:15:54.896Z,69760.00
2023-05-22T09:16:54.905Z,70816.00
2023-05-22T09:17:54.851Z,75552.00
2023-05-22T09:18:54.866Z,82688.00
2023-05-22T09:19:54.821Z,83200.00
2023-05-22T09:20:54.813Z,81568.00
2023-05-22T09:21:54.827Z,79168.00
2023-05-22T09:22:54.825Z,80768.00
2023-05-22T09:23:54.794Z,81280.00
2023-05-22T09:24:54.807Z,83296.00
2023-05-22T09:25:54.779Z,85120.00
2023-05-22T09:26:54.776Z,83136.00
2023-05-22T09:27:54.816Z,81824.00
2023-05-22T09:28:54.764Z,81120.00
2023-05-22T09:29:54.761Z,79840.00
2023-05-22T09:30:54.836Z,82720.00
2023-05-22T09:31:54.790Z,83776.00
2023-05-22T09:32:54.766Z,81632.00
2023-05-22T09:33:54.773Z,81344.00
2023-05-22T09:34:54.707Z,80608.00
2023-05-22T09:35:54.697Z,81408.00
2023-05-22T09:36:54.713Z,81440.00
2023-05-22T09:37:54.695Z,79616.00
2023-05-22T09:38:54.710Z,80352.00
2023-05-22T09:39:54.688Z,79264.00
2023-05-22T09:40:54.668Z,79488.00
2023-05-22T09:41:54.658Z,79808.00
2023-05-22T09:42:54.663Z,80000.00
2023-05-22T09:43:54.646Z,80672.00
2023-05-22T09:44:54.653Z,82848.00
2023-05-22T09:45:54.658Z,84960.00
2023-05-22T09:46:54.666Z,80864.00
2023-05-22T09:47:54.727Z,78176.00
2023-05-22T09:48:54.626Z,79264.00
2023-05-22T09:49:54.614Z,78272.00
2023-05-22T09:50:54.586Z,78144.00
2023-05-22T09:51:54.578Z,80992.00
2023-05-22T09:52:54.618Z,80128.00
2023-05-22T09:53:54.579Z,80832.00
2023-05-22T09:54:54.587Z,82528.00
2023-05-22T09:55:54.575Z,81856.00
2023-05-22T09:56:54.547Z,81376.00
2023-05-22T09:57:54.554Z,83040.00
2023-05-22T09:58:54.531Z,81856.00
2023-05-22T09:59:54.651Z,79616.00
2023-05-22T10:00:54.563Z,79072.00
2023-05-22T10:01:54.616Z,79936.00
2023-05-22T10:02:54.554Z,83744.00
2023-05-22T10:03:54.594Z,84192.00
2023-05-22T10:04:54.579Z,82464.00
2023-05-22T10:05:54.505Z,80704.00
2023-05-22T10:06:54.498Z,79744.00
2023-05-22T10:07:54.455Z,82528.00
2023-05-22T10:08:54.483Z,82208.00
2023-05-22T10:09:54.492Z,81120.00
2023-05-22T10:10:54.465Z,81280.00
2023-05-22T10:11:54.431Z,80160.00
2023-05-22T10:12:54.449Z,80992.00
2023-05-22T10:13:54.419Z,81888.00
2023-05-22T10:14:54.408Z,83648.00
2023-05-22T10:15:54.441Z,84064.00
2023-05-22T10:16:54.424Z,84352.00
2023-05-22T10:17:54.397Z,84384.00
2023-05-22T10:18:54.452Z,85248.00
2023-05-22T10:19:54.363Z,85312.00
2023-05-22T10:20:54.366Z,83328.00
2023-05-22T10:21:54.385Z,81600.00
2023-05-22T10:22:54.363Z,83648.00
2023-05-22T10:23:54.348Z,84736.00
2023-05-22T10:24:54.361Z,84672.00
2023-05-22T10:25:54.319Z,84576.00
2023-05-22T10:26:54.314Z,83360.00
2023-05-22T10:27:54.354Z,83584.00
2023-05-22T10:28:54.323Z,86496.00
2023-05-22T10:29:54.312Z,87488.00
2023-05-22T10:30:54.346Z,86080.00
2023-05-22T10:31:54.297Z,85856.00
2023-05-22T10:32:54.348Z,86688.00
2023-05-22T10:33:54.319Z,87680.00
2023-05-22T10:34:54.281Z,88352.00
2023-05-22T10:35:54.259Z,87072.00
2023-05-22T10:36:56.117Z,89120.00
2023-05-22T10:37:54.286Z,87296.00
2023-05-22T10:38:54.247Z,85120.00
2023-05-22T10:39:54.275Z,87936.00
2023-05-22T10:40:54.241Z,90144.00
2023-05-22T10:41:54.218Z,86112.00
2023-05-22T10:42:54.250Z,85984.00
2023-05-22T10:43:54.207Z,87328.00
2023-05-22T10:44:54.209Z,89504.00
2023-05-22T10:45:54.291Z,89440.00
2023-05-22T10:46:54.207Z,88608.00
2023-05-22T10:47:54.204Z,89280.00
2023-05-22T10:48:54.190Z,92032.00
2023-05-22T10:49:54.177Z,91456.00
2023-05-22T10:50:54.151Z,92192.00
2023-05-22T10:51:54.225Z,93216.00
2023-05-22T10:52:54.175Z,92608.00
2023-05-22T10:53:54.225Z,90304.00
2023-05-22T10:54:54.198Z,91904.00
2023-05-22T10:55:54.123Z,92064.00
2023-05-22T10:56:54.130Z,91904.00
2023-05-22T10:57:54.189Z,92576.00
2023-05-22T10:58:54.098Z,92480.00
2023-05-22T10:59:54.099Z,89952.00
2023-05-22T11:00:54.173Z,89440.00
2023-05-22T11:01:54.106Z,89600.00
2023-05-22T11:02:55.261Z,90880.00
2023-05-22T11:03:54.199Z,88928.00
2023-05-22T11:04:54.077Z,85920.00
2023-05-22T11:05:54.085Z,84480.00
2023-05-22T11:06:54.228Z,85024.00
2023-05-22T11:07:54.095Z,84608.00
2023-05-22T11:08:54.073Z,85824.00
2023-05-22T11:09:54.030Z,85408.00
2023-05-22T11:10:54.179Z,85184.00
2023-05-22T11:11:54.060Z,84640.00
2023-05-22T11:12:54.009Z,84192.00
2023-05-22T11:13:54.045Z,82752.00
2023-05-22T11:14:53.984Z,82464.00
2023-05-22T11:15:54.010Z,83712.00
2023-05-22T11:16:54.018Z,83712.00
2023-05-22T11:17:54.018Z,84576.00
2023-05-22T11:18:54.038Z,86016.00
2023-05-22T11:19:54.019Z,83904.00
2023-05-22T11:20:53.942Z,84416.00
2023-05-22T11:21:53.948Z,84928.00
2023-05-22T11:22:53.937Z,87296.00
2023-05-22T11:23:53.934Z,89792.00
2023-05-22T11:24:54.004Z,86368.00
2023-05-22T11:25:53.908Z,86144.00
2023-05-22T11:26:53.906Z,86528.00
2023-05-22T11:27:53.927Z,85184.00
2023-05-22T11:28:53.916Z,83168.00
2023-05-22T11:29:53.889Z,82560.00
2023-05-22T11:30:54.058Z,83520.00
2023-05-22T11:31:53.873Z,83264.00
2023-05-22T11:32:53.880Z,83776.00
2023-05-22T11:33:53.905Z,83040.00
2023-05-22T11:34:53.861Z,83328.00
2023-05-22T11:35:53.847Z,83296.00
2023-05-22T11:36:53.883Z,85312.00
2023-05-22T11:37:53.834Z,84000.00
2023-05-22T11:38:53.804Z,84160.00
2023-05-22T11:39:53.930Z,84480.00
2023-05-22T11:40:53.822Z,84544.00
2023-05-22T11:41:53.804Z,86432.00
2023-05-22T11:42:53.820Z,87648.00
2023-05-22T11:43:53.792Z,86944.00
2023-05-22T11:44:53.849Z,88608.00
2023-05-22T11:45:53.829Z,88992.00
2023-05-22T11:46:53.994Z,88800.00
2023-05-22T11:47:53.810Z,89536.00
2023-05-22T11:48:53.764Z,89664.00
2023-05-22T11:49:53.801Z,89984.00
2023-05-22T11:50:53.840Z,90336.00
2023-05-22T11:51:53.802Z,89376.00
2023-05-22T11:52:53.830Z,86464.00
2023-05-22T11:53:53.869Z,85312.00
2023-05-22T11:54:53.726Z,85056.00
2023-05-22T11:55:53.746Z,83520.00
2023-05-22T11:56:53.726Z,84320.00
2023-05-22T11:57:53.756Z,86080.00
2023-05-22T11:58:53.685Z,87328.00
2023-05-22T11:59:53.679Z,86528.00
2023-05-22T12:00:53.735Z,85824.00
2023-05-22T12:01:53.656Z,88384.00
2023-05-22T12:02:53.739Z,87936.00
2023-05-22T12:03:53.792Z,85856.00
2023-05-22T12:04:53.674Z,87136.00
2023-05-22T12:05:53.641Z,88576.00
2023-05-22T12:06:53.793Z,86688.00
2023-05-22T12:07:53.612Z,87008.00
2023-05-22T12:08:53.616Z,89344.00
2023-05-22T12:09:53.755Z,89792.00
2023-05-22T12:10:53.618Z,87104.00
2023-05-22T12:11:53.571Z,87488.00
2023-05-22T12:12:53.722Z,89024.00
2023-05-22T12:13:53.572Z,88608.00